createdAt,value
2022-12-31T00:02:21.044Z,4.13
2022-12-31T00:04:48.138Z,4.53
2022-12-31T00:07:14.988Z,4.35
2022-12-31T00:09:41.955Z,4.75
2022-12-31T00:12:08.839Z,5.15
2022-12-31T00:14:36.528Z,4.30
2022-12-31T00:17:03.501Z,5.57
2022-12-31T00:19:30.388Z,5.20
2022-12-31T00:21:57.279Z,5.30
2022-12-31T00:24:24.155Z,5.57
2022-12-31T00:26:50.987Z,5.38
2022-12-31T00:29:17.856Z,6.00
2022-12-31T00:31:44.662Z,6.13
2022-12-31T00:34:11.554Z,7.03
2022-12-31T00:36:39.656Z,7.45
2022-12-31T00:39:09.864Z,7.75
2022-12-31T00:41:36.748Z,8.00
2022-12-31T00:44:03.994Z,7.97
2022-12-31T00:46:31.856Z,8.73
2022-12-31T00:48:58.723Z,8.90
2022-12-31T00:51:29.207Z,9.50
2022-12-31T00:53:57.225Z,9.40
2022-12-31T00:56:27.387Z,9.07
2022-12-31T00:58:54.443Z,9.30
2022-12-31T01:01:34.075Z,8.88
2022-12-31T01:04:15.108Z,9.45
2022-12-31T01:06:43.076Z,9.73
2022-12-31T01:09:11.538Z,9.05
2022-12-31T01:11:38.467Z,8.63
2022-12-31T01:14:08.597Z,8.48
2022-12-31T01:16:38.373Z,7.80
2022-12-31T01:19:09.077Z,7.53
2022-12-31T01:21:38.650Z,7.75
2022-12-31T01:24:05.840Z,7.78
2022-12-31T01:26:32.743Z,9.15
2022-12-31T01:28:59.640Z,7.97
2022-12-31T01:31:27.062Z,7.22
2022-12-31T01:33:54.392Z,6.28
2022-12-31T01:36:26.143Z,8.35
2022-12-31T01:38:55.591Z,7.35
2022-12-31T01:41:31.160Z,5.95
2022-12-31T01:44:11.629Z,6.20
2022-12-31T01:46:49.588Z,5.95
2022-12-31T01:49:38.113Z,5.50
2022-12-31T01:52:13.168Z,5.13
2022-12-31T01:54:44.778Z,5.10
2022-12-31T01:57:12.864Z,5.18
2022-12-31T01:59:40.402Z,4.63
2022-12-31T02:02:07.534Z,4.45
2022-12-31T02:04:34.656Z,4.38
2022-12-31T02:07:04.788Z,4.30
2022-12-31T02:09:32.452Z,4.30
2022-12-31T02:12:00.027Z,3.90
2022-12-31T02:14:31.975Z,3.67
2022-12-31T02:17:23.863Z,3.38
2022-12-31T02:20:08.171Z,3.50
2022-12-31T02:23:16.834Z,3.75
2022-12-31T02:25:55.066Z,2.80
2022-12-31T02:28:49.309Z,2.80
2022-12-31T02:31:22.912Z,2.50
2022-12-31T02:33:58.067Z,2.40
2022-12-31T02:36:30.010Z,2.63
2022-12-31T02:38:58.812Z,2.50
2022-12-31T02:41:44.067Z,2.88
2022-12-31T02:44:31.501Z,3.22
2022-12-31T02:47:10.588Z,3.55
2022-12-31T02:49:40.258Z,3.80
2022-12-31T02:52:31.742Z,3.53
2022-12-31T02:55:14.855Z,3.88
2022-12-31T02:57:59.322Z,3.67
2022-12-31T03:00:45.742Z,3.33
2022-12-31T03:03:12.820Z,3.53
2022-12-31T03:05:43.469Z,3.53
2022-12-31T03:08:10.607Z,3.50
2022-12-31T03:10:37.478Z,3.35
2022-12-31T03:13:04.437Z,3.33
2022-12-31T03:15:33.743Z,3.30
2022-12-31T03:18:05.938Z,3.35
2022-12-31T03:20:51.155Z,3.17
2022-12-31T03:23:40.162Z,3.20
2022-12-31T03:26:13.073Z,2.85
2022-12-31T03:28:41.663Z,3.20
2022-12-31T03:31:08.813Z,3.03
2022-12-31T03:33:38.683Z,3.50
2022-12-31T03:36:08.875Z,3.33
2022-12-31T03:38:36.126Z,3.88
2022-12-31T03:41:03.196Z,3.90
2022-12-31T03:43:30.078Z,4.50
2022-12-31T03:45:59.933Z,4.88
2022-12-31T03:48:26.965Z,4.90
2022-12-31T03:50:53.739Z,5.40
2022-12-31T03:53:20.987Z,5.00
2022-12-31T03:55:52.733Z,5.38
2022-12-31T03:58:19.782Z,5.45
2022-12-31T04:00:46.636Z,5.28
2022-12-31T04:03:13.612Z,4.97
2022-12-31T04:05:41.147Z,4.32
2022-12-31T04:08:07.998Z,4.38
2022-12-31T04:10:34.806Z,4.07
2022-12-31T04:13:04.573Z,4.07
2022-12-31T04:15:32.019Z,4.68
2022-12-31T04:17:59.008Z,3.70
2022-12-31T04:20:25.911Z,3.72
2022-12-31T04:22:52.779Z,3.17
2022-12-31T04:25:19.592Z,3.60
2022-12-31T04:27:46.451Z,3.03
2022-12-31T04:30:14.162Z,3.50
2022-12-31T04:32:41.554Z,3.40
2022-12-31T04:35:09.065Z,3.47
2022-12-31T04:37:35.998Z,3.75
2022-12-31T04:40:06.370Z,3.10
2022-12-31T04:42:34.415Z,3.33
2022-12-31T04:45:01.528Z,3.08
2022-12-31T04:47:28.405Z,3.13
2022-12-31T04:49:55.207Z,3.40
2022-12-31T04:52:22.318Z,2.80
2022-12-31T04:54:49.167Z,2.80
2022-12-31T04:57:16.263Z,2.80
2022-12-31T04:59:43.130Z,2.45
2022-12-31T05:02:10.173Z,2.55
2022-12-31T05:04:37.273Z,2.80
2022-12-31T05:07:04.127Z,3.22
2022-12-31T05:09:31.072Z,3.13
2022-12-31T05:11:58.083Z,4.63
2022-12-31T05:14:25.162Z,5.50
2022-12-31T05:16:52.520Z,5.60
2022-12-31T05:19:19.474Z,6.32
2022-12-31T05:22:06.297Z,8.90
2022-12-31T05:24:33.189Z,11.77
2022-12-31T05:27:00.085Z,11.75
2022-12-31T05:29:26.909Z,13.05
2022-12-31T05:31:53.737Z,16.30
2022-12-31T05:34:20.659Z,12.75
2022-12-31T05:36:47.447Z,11.82
2022-12-31T05:39:14.350Z,14.43
2022-12-31T05:41:41.208Z,13.93
2022-12-31T05:44:08.049Z,10.07
2022-12-31T05:46:34.897Z,11.98
2022-12-31T05:49:01.707Z,10.50
2022-12-31T05:51:28.474Z,10.18
2022-12-31T05:53:55.273Z,9.15
2022-12-31T05:56:22.196Z,7.30
2022-12-31T05:58:49.003Z,7.43
2022-12-31T06:01:15.882Z,7.28
2022-12-31T06:03:42.744Z,7.03
2022-12-31T06:06:09.706Z,6.57
2022-12-31T06:08:36.611Z,6.55
2022-12-31T06:11:03.559Z,6.00
2022-12-31T06:13:30.573Z,6.38
2022-12-31T06:15:57.496Z,6.05
2022-12-31T06:18:24.442Z,5.78
2022-12-31T06:20:51.420Z,5.80
2022-12-31T06:23:18.200Z,6.05
2022-12-31T06:25:45.045Z,6.00
2022-12-31T06:28:17.984Z,6.25
2022-12-31T06:30:47.413Z,5.45
2022-12-31T06:33:14.398Z,5.40
2022-12-31T06:35:41.241Z,5.57
2022-12-31T06:38:08.068Z,5.75
2022-12-31T06:40:37.679Z,5.32
2022-12-31T06:43:04.568Z,5.25
2022-12-31T06:45:31.428Z,5.20
2022-12-31T06:47:58.228Z,5.70
2022-12-31T06:50:25.094Z,5.90
2022-12-31T06:52:51.920Z,5.47
2022-12-31T06:55:19.167Z,5.50
2022-12-31T06:57:46.242Z,5.75
2022-12-31T07:00:13.744Z,5.63
2022-12-31T07:02:54.071Z,5.55
2022-12-31T07:05:28.193Z,6.20
2022-12-31T07:08:16.696Z,7.40
2022-12-31T07:11:02.228Z,6.20
2022-12-31T07:13:53.663Z,6.57
2022-12-31T07:16:36.382Z,6.50
2022-12-31T07:19:22.020Z,6.72
2022-12-31T07:21:51.463Z,6.78
2022-12-31T07:26:56.186Z,6.35
2022-12-31T07:29:46.285Z,7.60
2022-12-31T07:32:43.500Z,7.45
2022-12-31T07:35:48.666Z,6.95
2022-12-31T07:38:31.396Z,7.07
2022-12-31T07:41:09.844Z,7.90
2022-12-31T07:43:46.188Z,6.22
2022-12-31T07:46:47.623Z,6.30
2022-12-31T07:49:15.064Z,6.97
2022-12-31T07:51:42.434Z,6.90
2022-12-31T07:54:13.923Z,5.68
2022-12-31T07:56:43.066Z,5.78
2022-12-31T08:00:00.241Z,6.17
2022-12-31T08:03:05.760Z,6.07
2022-12-31T08:05:38.798Z,6.50
2022-12-31T08:08:32.354Z,5.43
2022-12-31T08:11:16.075Z,5.90
2022-12-31T08:13:44.192Z,5.63
2022-12-31T08:16:12.482Z,5.30
2022-12-31T08:18:39.671Z,5.55
2022-12-31T08:21:17.529Z,5.38
2022-12-31T08:24:22.918Z,5.20
2022-12-31T08:27:23.827Z,5.20
2022-12-31T08:30:03.766Z,4.97
2022-12-31T08:33:08.384Z,5.60
2022-12-31T08:35:54.416Z,5.80
2022-12-31T08:38:53.361Z,5.50
2022-12-31T08:41:42.693Z,5.80
2022-12-31T08:44:22.612Z,5.80
2022-12-31T08:47:00.248Z,5.47
2022-12-31T08:49:29.676Z,5.13
2022-12-31T08:54:23.739Z,6.40
2022-12-31T08:57:17.781Z,5.80
2022-12-31T09:00:13.733Z,5.40
2022-12-31T09:03:20.718Z,6.05
2022-12-31T09:06:02.714Z,5.50
2022-12-31T09:08:55.289Z,4.78
2022-12-31T09:11:43.867Z,5.10
2022-12-31T09:14:35.698Z,4.88
2022-12-31T09:17:23.253Z,3.90
2022-12-31T09:19:50.317Z,4.18
2022-12-31T09:22:17.333Z,3.92
2022-12-31T09:24:44.541Z,3.80
2022-12-31T09:27:36.451Z,3.70
2022-12-31T09:30:08.552Z,3.90
2022-12-31T09:32:51.921Z,3.90
2022-12-31T09:35:37.450Z,3.80
2022-12-31T09:38:16.273Z,3.78
2022-12-31T09:41:17.317Z,2.72
2022-12-31T09:44:02.863Z,2.42
2022-12-31T09:47:03.977Z,2.10
2022-12-31T09:50:02.047Z,2.10
2022-12-31T09:52:49.645Z,1.85
2022-12-31T09:55:35.921Z,1.77
2022-12-31T09:58:21.583Z,1.83
2022-12-31T10:01:13.246Z,2.17
2022-12-31T10:04:11.744Z,2.00
2022-12-31T10:07:19.112Z,2.03
2022-12-31T10:10:18.711Z,1.70
2022-12-31T10:13:04.750Z,2.10
2022-12-31T10:16:06.258Z,2.03
2022-12-31T10:19:15.043Z,2.30
2022-12-31T10:22:02.738Z,1.80
2022-12-31T10:24:57.831Z,1.80
2022-12-31T10:27:42.872Z,1.92
2022-12-31T10:30:45.004Z,2.00
2022-12-31T10:37:14.038Z,2.92
2022-12-31T10:40:08.503Z,2.97
2022-12-31T10:43:21.962Z,3.47
2022-12-31T10:46:32.244Z,5.18
2022-12-31T10:49:39.884Z,2.92
2022-12-31T10:52:12.849Z,2.30
2022-12-31T10:58:50.335Z,3.63
2022-12-31T11:02:00.277Z,2.63
2022-12-31T11:04:48.961Z,4.53
2022-12-31T11:07:59.057Z,3.47
2022-12-31T11:10:37.602Z,3.88
2022-12-31T11:13:11.755Z,3.55
2022-12-31T11:15:59.405Z,3.05
2022-12-31T11:18:26.154Z,3.33
2022-12-31T11:21:04.401Z,3.45
2022-12-31T11:23:35.978Z,3.17
2022-12-31T11:26:35.072Z,3.22
2022-12-31T11:29:25.932Z,3.42
2022-12-31T11:32:06.098Z,3.30
2022-12-31T11:37:24.224Z,4.35
2022-12-31T11:40:21.048Z,4.78
2022-12-31T11:42:53.601Z,5.63
2022-12-31T11:45:51.699Z,6.60
2022-12-31T11:48:49.232Z,6.78
2022-12-31T11:51:34.707Z,6.30
2022-12-31T11:54:25.892Z,6.97
2022-12-31T11:57:27.459Z,8.57
2022-12-31T12:00:00.633Z,11.23
2022-12-31T12:02:37.772Z,6.93
2022-12-31T12:05:10.933Z,6.32
2022-12-31T12:07:38.318Z,7.63
2022-12-31T12:10:19.514Z,7.32
2022-12-31T12:12:46.410Z,7.03
2022-12-31T12:15:22.137Z,6.53
2022-12-31T12:17:57.961Z,9.13
2022-12-31T12:20:33.858Z,8.85
2022-12-31T12:23:13.572Z,9.20
2022-12-31T12:25:43.420Z,7.43
2022-12-31T12:28:19.524Z,6.43
2022-12-31T12:30:54.936Z,5.00
2022-12-31T12:33:30.568Z,4.43
2022-12-31T12:36:13.727Z,5.20
2022-12-31T12:38:40.579Z,5.32
2022-12-31T12:41:20.594Z,6.07
2022-12-31T12:43:47.710Z,6.60
2022-12-31T12:46:31.852Z,6.57
2022-12-31T12:48:59.799Z,6.70
2022-12-31T12:51:47.759Z,8.10
2022-12-31T12:54:33.351Z,6.15
2022-12-31T12:57:08.061Z,6.38
2022-12-31T12:59:56.772Z,6.07
2022-12-31T13:02:29.664Z,6.93
2022-12-31T13:05:27.703Z,9.30
2022-12-31T13:08:00.613Z,36.00
2022-12-31T13:10:48.724Z,15.82
2022-12-31T13:13:30.168Z,9.13
2022-12-31T13:16:00.713Z,9.05
2022-12-31T13:18:46.774Z,8.95
2022-12-31T13:21:34.657Z,8.25
2022-12-31T13:24:18.653Z,7.13
2022-12-31T13:26:48.972Z,7.85
2022-12-31T13:29:24.134Z,6.95
2022-12-31T13:31:52.913Z,11.20
2022-12-31T13:34:25.967Z,7.03
2022-12-31T13:36:56.983Z,7.10
2022-12-31T13:39:26.992Z,6.82
2022-12-31T13:42:00.515Z,6.90
2022-12-31T13:44:47.958Z,4.97
2022-12-31T13:47:27.474Z,6.68
2022-12-31T13:50:27.488Z,6.68
2022-12-31T13:53:12.363Z,6.22
2022-12-31T13:55:56.495Z,5.47
2022-12-31T13:58:31.708Z,6.88
2022-12-31T14:01:18.522Z,7.53
2022-12-31T14:04:13.583Z,4.72
2022-12-31T14:07:01.384Z,4.65
2022-12-31T14:09:31.544Z,4.65
2022-12-31T14:11:58.386Z,4.18
2022-12-31T14:14:32.908Z,3.80
2022-12-31T14:17:06.296Z,4.03
2022-12-31T14:19:41.289Z,4.97
2022-12-31T14:22:26.718Z,4.55
2022-12-31T14:24:54.672Z,4.60
2022-12-31T14:27:29.652Z,4.18
2022-12-31T14:30:02.102Z,5.22
2022-12-31T14:33:15.702Z,10.38
2022-12-31T14:35:54.513Z,6.50
2022-12-31T14:38:36.506Z,11.90
2022-12-31T14:41:09.580Z,7.57
2022-12-31T14:44:11.791Z,10.23
2022-12-31T14:46:58.772Z,9.35
2022-12-31T14:49:31.468Z,36.88
2022-12-31T14:52:22.440Z,13.32
2022-12-31T14:57:42.771Z,9.48
2022-12-31T15:00:38.430Z,72.18
2022-12-31T15:03:16.229Z,76.93
2022-12-31T15:06:03.582Z,36.20
2022-12-31T15:09:07.514Z,31.48
2022-12-31T15:12:09.027Z,20.63
2022-12-31T15:14:38.571Z,83.38
2022-12-31T15:17:22.106Z,59.42
2022-12-31T15:20:00.875Z,27.27
2022-12-31T15:22:38.059Z,18.80
2022-12-31T15:25:26.947Z,24.33
2022-12-31T15:27:55.500Z,11.75
2022-12-31T15:30:33.975Z,11.32
2022-12-31T15:33:04.619Z,8.00
2022-12-31T15:35:44.175Z,12.07
2022-12-31T15:38:11.007Z,19.58
2022-12-31T15:40:46.418Z,15.18
2022-12-31T15:43:25.772Z,14.35
2022-12-31T15:45:55.249Z,13.50
2022-12-31T15:48:32.718Z,12.90
2022-12-31T15:51:01.520Z,10.60
2022-12-31T15:53:44.035Z,9.35
2022-12-31T15:56:20.741Z,10.25
2022-12-31T15:58:49.997Z,9.88
2022-12-31T16:01:23.468Z,9.52
2022-12-31T16:03:58.175Z,6.32
2022-12-31T16:06:28.582Z,7.07
2022-12-31T16:08:58.987Z,7.40
2022-12-31T16:11:30.507Z,8.40
2022-12-31T16:13:59.267Z,7.63
2022-12-31T16:16:31.695Z,7.43
2022-12-31T16:18:59.393Z,7.32
2022-12-31T16:21:33.352Z,57.10
2022-12-31T16:24:23.545Z,16.80
2022-12-31T16:26:53.636Z,24.30
2022-12-31T16:29:22.878Z,10.10
2022-12-31T16:31:53.129Z,44.60
2022-12-31T16:34:26.880Z,13.65
2022-12-31T16:36:59.617Z,12.48
2022-12-31T16:39:26.456Z,15.07
2022-12-31T16:42:07.624Z,9.98
2022-12-31T16:44:34.638Z,12.50
2022-12-31T16:47:03.121Z,14.30
2022-12-31T16:49:33.299Z,19.37
2022-12-31T16:52:08.846Z,18.80
2022-12-31T16:54:39.620Z,25.55
2022-12-31T16:57:10.897Z,9.32
2022-12-31T16:59:44.991Z,8.80
2022-12-31T17:02:19.040Z,9.52
2022-12-31T17:04:55.733Z,11.70
2022-12-31T17:07:32.578Z,7.90
2022-12-31T17:10:24.151Z,31.10
2022-12-31T17:15:47.706Z,12.43
2022-12-31T17:18:20.238Z,37.22
2022-12-31T17:20:48.377Z,10.65
2022-12-31T17:23:28.915Z,9.98
2022-12-31T17:26:22.154Z,8.95
2022-12-31T17:28:51.421Z,7.45
2022-12-31T17:31:37.262Z,8.00
2022-12-31T17:34:32.293Z,7.70
2022-12-31T17:37:10.538Z,7.03
2022-12-31T17:39:47.127Z,6.78
2022-12-31T17:42:22.762Z,8.40
2022-12-31T17:44:50.179Z,7.57
2022-12-31T17:47:17.076Z,8.52
2022-12-31T17:49:45.793Z,7.93
2022-12-31T17:52:14.700Z,6.85
2022-12-31T17:54:42.285Z,6.18
2022-12-31T17:57:23.390Z,8.45
2022-12-31T17:59:50.360Z,9.40
2022-12-31T18:02:17.469Z,8.77
2022-12-31T18:04:44.404Z,7.97
2022-12-31T18:07:11.451Z,10.77
2022-12-31T18:09:38.322Z,7.90
2022-12-31T18:12:06.788Z,7.80
2022-12-31T18:14:34.106Z,10.60
2022-12-31T18:17:00.957Z,7.53
2022-12-31T18:20:02.933Z,7.57
2022-12-31T18:22:16.197Z,34.58
2022-12-31T18:24:43.675Z,8.03
2022-12-31T18:27:16.648Z,8.32
2022-12-31T18:29:43.803Z,9.02
2022-12-31T18:32:26.467Z,5.80
2022-12-31T18:34:53.508Z,7.30
2022-12-31T18:37:22.298Z,6.45
2022-12-31T18:39:49.723Z,17.05
2022-12-31T18:42:18.800Z,17.38
2022-12-31T18:44:46.488Z,22.98
2022-12-31T18:47:15.574Z,8.75
2022-12-31T18:49:43.031Z,8.80
2022-12-31T18:52:13.603Z,8.43
2022-12-31T18:54:40.664Z,6.78
2022-12-31T18:57:07.503Z,6.35
2022-12-31T18:59:34.272Z,7.05
2022-12-31T19:02:01.403Z,5.85
2022-12-31T19:04:28.679Z,7.90
2022-12-31T19:06:56.440Z,7.20
2022-12-31T19:12:13.597Z,6.85
2022-12-31T19:14:40.555Z,6.40
2022-12-31T19:19:34.667Z,7.10
2022-12-31T19:22:02.697Z,12.80
2022-12-31T19:24:29.797Z,7.10
2022-12-31T19:26:56.645Z,6.45
2022-12-31T19:29:25.906Z,5.78
2022-12-31T19:34:19.650Z,6.70
2022-12-31T19:36:46.816Z,4.32
2022-12-31T19:39:17.502Z,4.70
2022-12-31T19:41:45.051Z,4.57
2022-12-31T19:44:16.880Z,4.53
2022-12-31T19:46:44.305Z,4.72
2022-12-31T19:49:12.521Z,4.22
2022-12-31T19:51:39.493Z,6.20
2022-12-31T19:54:06.899Z,11.57
2022-12-31T19:56:34.009Z,13.80
2022-12-31T19:59:08.777Z,4.97
2022-12-31T20:01:35.948Z,8.27
2022-12-31T20:04:03.071Z,8.65
2022-12-31T20:06:29.977Z,12.32
2022-12-31T20:08:57.083Z,6.95
2022-12-31T20:11:24.969Z,6.60
2022-12-31T20:13:53.770Z,9.27
2022-12-31T20:16:23.827Z,32.15
2022-12-31T20:18:51.176Z,10.40
2022-12-31T20:21:28.910Z,31.33
2022-12-31T20:23:56.379Z,26.67
2022-12-31T20:26:24.621Z,9.35
2022-12-31T20:28:52.528Z,6.82
2022-12-31T20:31:23.688Z,6.78
2022-12-31T20:33:50.632Z,6.93
2022-12-31T20:36:17.983Z,5.00
2022-12-31T20:38:45.178Z,5.03
2022-12-31T20:41:17.546Z,5.38
2022-12-31T20:43:45.814Z,5.07
2022-12-31T20:46:19.451Z,5.40
2022-12-31T20:48:48.145Z,5.70
2022-12-31T20:51:16.243Z,5.13
2022-12-31T20:53:58.206Z,4.57
2022-12-31T20:56:27.186Z,16.02
2022-12-31T20:58:54.352Z,6.50
2022-12-31T21:01:21.870Z,6.07
2022-12-31T21:04:06.360Z,6.22
2022-12-31T21:06:35.173Z,8.98
2022-12-31T21:09:04.439Z,6.93
2022-12-31T21:11:49.843Z,6.32
2022-12-31T21:14:16.737Z,5.55
2022-12-31T21:16:43.772Z,7.35
2022-12-31T21:19:10.717Z,8.23
2022-12-31T21:21:37.713Z,11.80
2022-12-31T21:24:04.960Z,10.65
2022-12-31T21:26:31.942Z,8.43
2022-12-31T21:28:58.927Z,14.02
2022-12-31T21:31:25.979Z,10.25
2022-12-31T21:33:52.898Z,9.57
2022-12-31T21:36:20.268Z,7.82
2022-12-31T21:38:47.162Z,21.15
2022-12-31T21:41:34.026Z,29.02
2022-12-31T21:44:01.860Z,9.18
2022-12-31T21:46:29.313Z,7.07
2022-12-31T21:49:00.499Z,6.00
2022-12-31T21:51:28.652Z,7.43
2022-12-31T21:53:55.612Z,6.30
2022-12-31T21:56:22.830Z,7.25
2022-12-31T21:59:16.337Z,6.50
2022-12-31T22:02:02.214Z,7.43
2022-12-31T22:07:16.619Z,7.70
2022-12-31T22:09:43.535Z,8.13
2022-12-31T22:12:10.389Z,8.43
2022-12-31T22:14:37.390Z,6.65
2022-12-31T22:17:04.257Z,7.00
2022-12-31T22:19:31.274Z,6.63
2022-12-31T22:21:58.133Z,6.35
2022-12-31T22:24:24.948Z,6.75
2022-12-31T22:26:53.880Z,6.70
2022-12-31T22:29:21.535Z,5.90
2022-12-31T22:31:48.430Z,6.10
2022-12-31T22:34:15.525Z,6.78
2022-12-31T22:36:42.385Z,5.97
2022-12-31T22:39:43.826Z,6.68
2022-12-31T22:42:02.003Z,7.00
2022-12-31T22:44:29.095Z,6.50
2022-12-31T22:46:56.275Z,6.32
2022-12-31T22:49:23.305Z,6.85
2022-12-31T22:51:56.045Z,8.07
2022-12-31T22:54:25.835Z,8.48
2022-12-31T22:56:52.759Z,12.40
2022-12-31T22:59:19.623Z,8.00
2022-12-31T23:01:46.562Z,6.63
2022-12-31T23:04:13.550Z,13.20
2022-12-31T23:06:46.318Z,64.82
2022-12-31T23:09:33.720Z,63.72
2022-12-31T23:12:01.367Z,94.03
2022-12-31T23:14:46.682Z,72.82
2022-12-31T23:17:36.447Z,116.40
2022-12-31T23:20:25.050Z,83.28
2022-12-31T23:23:10.172Z,43.50
2022-12-31T23:25:47.564Z,51.20
2022-12-31T23:28:17.358Z,67.95
2022-12-31T23:30:44.309Z,65.32
2022-12-31T23:33:17.425Z,137.68
2022-12-31T23:35:44.772Z,218.10
2022-12-31T23:38:11.703Z,19.63
2022-12-31T23:40:38.648Z,16.23
2022-12-31T23:43:07.482Z,22.25
2022-12-31T23:45:35.220Z,49.83
2022-12-31T23:48:02.545Z,16.00
2022-12-31T23:50:29.523Z,14.07
2022-12-31T23:52:56.345Z,14.73
2022-12-31T23:55:23.177Z,20.20
2022-12-31T23:57:49.972Z,23.80
